• Join FlightAware (Why Join?)
  • Login
  • US Flag 
10:12AM EST


 

Airport Tracker/Info


-or-


 

Live Flight TrackerFlight Track Log ✈ JZA8293 ✈ 27-Apr-2013 ✈ CYWG - CYXE

Flight Track Log - Related Links

Times and Time Zones

All times are in EDT time to prevent confusion due to time zone crossing. See the JZA8293 flight status page for this flight to view local times or setup timezone preferences in your user account.

Time Position Orientation Groundspeed Altitude Reporting Facility
EDT Latitude Longitude Course Direction KTS MPH feet Rate Location/Type
01:23PM 49.9167 -97.2333 285° West 30 35 800  Level Winnipeg Center
01:24PM 49.8667 -97.2333 180° South 160 184 2,100 1,550 Climbing Winnipeg Center
01:25PM 49.8167 -97.2333 180° South 200 230 3,900 2,200 Climbing Winnipeg Center
01:26PM 49.7833 -97.2833 224° Southwest 200 230 6,500 1,850 Climbing Winnipeg Center
01:27PM 49.8500 -97.3333 334° Northwest 280 322 7,600 1,800 Climbing Winnipeg Center
01:28PM 50.0756 -98.0277 287° West  Level FlightAware Approximate
01:28PM 49.9000 -97.4333 308° West 270 311 10,100  Level Winnipeg Center
01:29PM 50.1191 -98.1804 285° West  Level FlightAware Approximate
01:29PM 49.9333 -97.5333 297° West 290 334 11,600  Level Winnipeg Center
01:30PM 49.9833 -97.6500 304° West 330 380 12,700 1,350 Climbing Winnipeg Center
01:31PM 50.0333 -97.7667 304° West 340 391 14,300 1,500 Climbing Winnipeg Center
01:32PM 50.0667 -97.9000 291° West 340 391 15,700 1,450 Climbing Winnipeg Center
01:33PM 50.0840 -98.0680 308° West  Level FlightAware Approximate
01:33PM 50.0667 -98.0667 308° West 340 391 17,200  Level Winnipeg Center
01:34PM 50.1000 -98.2000 291° West 340 391 18,600 1,300 Climbing Winnipeg Center
01:35PM 50.1333 -98.3500 289° West 350 403 19,800 1,050 Climbing Winnipeg Center
01:36PM 50.1667 -98.4833 291° West 350 403 20,700 1,000 Climbing Winnipeg Center
01:37PM 50.2000 -98.6333 289° West 360 414 21,800 1,100 Climbing Winnipeg Center
01:38PM 50.2333 -98.8000 287° West 370 426 22,900 1,100 Climbing Winnipeg Center
01:39PM 50.2667 -98.9500 289° West 370 426 24,000 1,050 Climbing Winnipeg Center
01:40PM 50.3000 -99.1167 287° West 380 437 25,000 900 Climbing Winnipeg Center
01:41PM 50.3000 -99.2667 270° West 380 437 25,800 750 Climbing Winnipeg Center
01:42PM 50.3333 -99.4333 287° West 380 437 26,500 900 Climbing Winnipeg Center
01:43PM 50.3833 -99.5833 298° West 390 449 27,600 1,150 Climbing Winnipeg Center
01:44PM 50.4000 -99.7500 279° West 380 437 28,800 1,000 Climbing Winnipeg Center
01:45PM 50.4500 -99.9167 295° West 370 426 29,600 750 Climbing Winnipeg Center
01:46PM 50.4833 -100.0500 291° West 370 426 30,300 700 Climbing Winnipeg Center
01:47PM 50.5333 -100.2000 298° West 370 426 31,000 650 Climbing Winnipeg Center
01:48PM 50.5667 -100.3333 292° West 370 426 31,600 650 Climbing Winnipeg Center
01:49PM 50.6167 -100.5000 295° West 370 426 32,300 550 Climbing Winnipeg Center
01:50PM 50.6500 -100.6333 292° West 360 414 32,700 450 Climbing Winnipeg Center
01:51PM 50.7000 -100.7667 301° West 360 414 33,200 454 Climbing Winnipeg Center
01:51PM 50.7333 -100.9333 288° West 360 414 33,600 403 Climbing Winnipeg Center
01:52PM 50.7833 -101.0667 301° West 360 414 34,000 198 Climbing Winnipeg Center
01:54PM 50.8167 -101.2333 288° West 360 414 34,000  Level Winnipeg Center
01:54PM 50.8667 -101.3667 301° West 370 426 34,000  Level Winnipeg Center
01:55PM 50.9167 -101.5333 296° West 380 437 34,000  Level Winnipeg Center
01:56PM 50.9500 -101.7000 288° West 390 449 34,000  Level Winnipeg Center
01:57PM 51.0000 -101.8333 301° West 390 449 34,000  Level Winnipeg Center
01:59PM 51.0500 -102.0000 296° West 400 460 34,000  Level Winnipeg Center
01:59PM 51.0833 -102.1667 288° West 400 460 34,000  Level Winnipeg Center
02:01PM 51.1333 -102.3333 296° West 400 460 34,000  Level Winnipeg Center
02:02PM 51.1667 -102.5000 288° West 400 460 34,000  Level Winnipeg Center
02:03PM 51.2167 -102.6333 301° West 390 449 34,000  Level Winnipeg Center
02:04PM 51.2500 -102.8333 285° West 390 449 34,000  Level Winnipeg Center
02:05PM 51.3000 -102.9667 301° West 390 449 34,000  Level Winnipeg Center
02:06PM 51.3333 -103.1333 288° West 390 449 34,000  Level Winnipeg Center
02:07PM 51.3833 -103.3000 296° West 390 449 34,000  Level Winnipeg Center
02:08PM 51.4000 -103.4333 281° West 390 449 34,000  Level Winnipeg Center
02:09PM 51.4500 -103.6000 296° West 380 437 34,000  Level Winnipeg Center
02:10PM 51.4833 -103.7667 288° West 380 437 34,000  Level Winnipeg Center
02:11PM 51.5333 -103.9333 296° West 380 437 34,000  Level Winnipeg Center
02:12PM 51.5667 -104.0833 290° West 380 437 34,000  Level Winnipeg Center
02:13PM 51.6167 -104.2500 296° West 380 437 34,000  Level Winnipeg Center
02:14PM 51.6500 -104.4000 290° West 380 437 34,000  Level Winnipeg Center
02:15PM 51.7000 -104.5667 296° West 380 437 34,000  Level Winnipeg Center
02:16PM 51.7333 -104.7333 288° West 380 437 34,000  Level Winnipeg Center
02:17PM 51.7667 -104.8667 292° West 380 437 34,000  Level Winnipeg Center
02:18PM 51.8000 -105.0500 286° West 380 437 34,000 -650 Level Winnipeg Center
02:19PM 51.8333 -105.2167 288° West 380 437 32,700 -2,150 Descending Winnipeg Center
02:20PM 51.8833 -105.3833 296° West 410 472 29,700 -2,950 Descending Winnipeg Center
02:21PM 51.9333 -105.5500 296° West 400 460 26,800 -3,000 Descending Winnipeg Center
02:22PM 51.9667 -105.7333 287° West 390 449 23,700 -2,800 Descending Winnipeg Center
02:23PM 51.9833 -105.8667 282° West 380 437 21,200 -2,500 Descending Winnipeg Center
02:24PM 52.0167 -106.0333 288° West 370 426 18,700 -2,800 Descending Winnipeg Center
02:25PM 52.0333 -106.2000 279° West 370 426 15,600 -2,800 Descending Winnipeg Center
02:26PM 52.0333 -106.3500 270° West 360 414 13,100 -2,450 Descending Winnipeg Center
02:27PM 52.0500 -106.5167 279° West 330 380 10,700 -2,000 Descending Winnipeg Center
02:28PM 52.0667 -106.6500 282° West 310 357 9,100 -1,950 Descending Winnipeg Center
02:29PM 52.0833 -106.7667 283° West 260 299 6,800 -2,350 Descending Winnipeg Center
02:30PM 52.0833 -106.8833 270° West 250 288 4,400 -1,750 Descending Winnipeg Center
02:31PM 52.1167 -106.9667 303° West 240 276 3,300 -550 Descending Winnipeg Center
02:32PM 52.1500 -106.9500 17° North 180 207 3,300  Level Winnipeg Center
02:33PM 52.1833 -106.8667 57° Northeast 160 184 3,300  Level Winnipeg Center